»·PEaware :: UAL2068 KMFR-KSFO

UAL2068 :: KMFR-KSFO

FLIGHT INFORMATION

Flight Status: Arrived
Operator:
United Airlines
More flights by this operator :: More flights under this callsign
Pilot: Patricio R. (14780)
Aircraft: BOEING 737-200
(B732)
More flights by this aircraft type
Origin: KMFR Rogue Valley Intl-Medford
United States
Destination: KSFO San Francisco Intl
United States
More flights between these airports :: More routes between these airports
Route: +GNATS7 TALEM V23 RBL GOLDN7
File this flight plan on PilotEdge
Remarks:
Altitude:
(Current/Filed)
29,000ft
Speed:
(Current/Filed)
444kts
Departed: 21-Sep-18 03:09 PM
Arrived: 21-Sep-18 04:16 PM
Distance/Time
Traveled:
286nm/1:07
Distance/Time
To Go:
Arrived

Flight Plot

Page will automatically refresh every two minutes.

Flight plan parsing failed; only flown route is shown


Map Options




Map Legend


Flown Route
Filed Route
Departure Airport
Arrival Airport
Navaid (VOR, NDB)
Fix

Horizontal Profiles

Position Reports

Time Latitude Longitude Heading Altitude Ground
Speed
21-Sep-18 14:55 42.368981 -122.873501 248 1321ft 0kts
21-Sep-18 14:56 42.368981 -122.873501 248 1321ft 0kts
21-Sep-18 14:57 42.368981 -122.873501 248 1321ft 0kts
21-Sep-18 14:58 42.368981 -122.873501 248 1321ft 0kts
21-Sep-18 14:59 42.368981 -122.873501 248 1321ft 0kts
21-Sep-18 15:00 42.368981 -122.873501 248 1321ft 0kts
21-Sep-18 15:01 42.368981 -122.873501 248 1321ft 0kts
21-Sep-18 15:02 42.369100 -122.873096 248 1322ft 2kts
21-Sep-18 15:03 42.369323 -122.872338 248 1324ft 2kts
21-Sep-18 15:04 42.369160 -122.871813 338 1325ft 0kts
21-Sep-18 15:05 42.369161 -122.871813 338 1325ft 0kts
21-Sep-18 15:06 42.369161 -122.871813 338 1325ft 0kts
21-Sep-18 15:07 42.372029 -122.873318 338 1320ft 16kts
21-Sep-18 15:08 42.376490 -122.875672 338 1313ft 17kts
21-Sep-18 15:09 42.381042 -122.878072 338 1310ft 17kts
21-Sep-18 15:10 42.385729 -122.880154 40 1301ft 13kts
21-Sep-18 15:11 42.373603 -122.872545 158 1320ft 156kts
21-Sep-18 15:12 42.325289 -122.878243 243 3594ft 231kts
21-Sep-18 15:13 42.356031 -122.931845 1 6732ft 233kts
21-Sep-18 15:14 42.425757 -122.941418 313 8625ft 280kts
21-Sep-18 15:15 42.430481 -123.036832 228 11408ft 282kts
21-Sep-18 15:16 42.378909 -123.117035 231 13972ft 287kts
21-Sep-18 15:17 42.315407 -123.174296 175 16119ft 309kts
21-Sep-18 15:18 42.264901 -123.081288 101 17945ft 353kts
21-Sep-18 15:19 42.258034 -122.946772 91 19629ft 366kts
21-Sep-18 15:20 42.216599 -122.834867 164 21120ft 344kts
21-Sep-18 15:21 42.128175 -122.854228 195 22522ft 333kts
21-Sep-18 15:22 42.034551 -122.864489 185 23818ft 345kts
21-Sep-18 15:23 41.937717 -122.860438 182 24983ft 353kts
21-Sep-18 15:24 41.839268 -122.852778 182 26049ft 359kts
21-Sep-18 15:25 41.739059 -122.843655 181 27018ft 364kts
21-Sep-18 15:26 41.637117 -122.834326 181 27896ft 369kts
21-Sep-18 15:27 41.534307 -122.824927 181 28687ft 374kts
21-Sep-18 15:28 41.431613 -122.799575 167 29072ft 397kts
21-Sep-18 15:29 41.326052 -122.753156 167 29067ft 407kts
21-Sep-18 15:30 41.217838 -122.706327 167 29066ft 412kts
21-Sep-18 15:31 41.108409 -122.659503 167 29066ft 416kts
21-Sep-18 15:32 40.997528 -122.611830 166 29002ft 422kts
21-Sep-18 15:33 40.887044 -122.564810 166 28975ft 425kts
21-Sep-18 15:34 40.774506 -122.517132 166 28976ft 427kts
21-Sep-18 15:35 40.660892 -122.473655 168 28976ft 428kts
21-Sep-18 15:36 40.546675 -122.427529 166 28976ft 431kts
21-Sep-18 15:37 40.432892 -122.379055 165 28976ft 432kts
21-Sep-18 15:38 40.319005 -122.330063 165 28972ft 433kts
21-Sep-18 15:39 40.205046 -122.281126 166 28977ft 432kts
21-Sep-18 15:40 40.090911 -122.232783 167 28979ft 432kts
21-Sep-18 15:41 39.981448 -122.261383 205 28978ft 411kts
21-Sep-18 15:42 39.872831 -122.307240 199 28984ft 413kts
21-Sep-18 15:43 39.761438 -122.345168 198 28982ft 415kts
21-Sep-18 15:44 39.649589 -122.381571 197 28981ft 415kts
21-Sep-18 15:45 39.537696 -122.417587 197 28986ft 415kts
21-Sep-18 15:46 39.423509 -122.441488 193 28987ft 417kts
21-Sep-18 15:47 39.310812 -122.472364 197 28985ft 415kts
21-Sep-18 15:48 39.198680 -122.508046 197 28983ft 415kts
21-Sep-18 15:49 39.087179 -122.544291 198 28984ft 415kts
21-Sep-18 15:50 38.975321 -122.580744 197 28985ft 415kts
21-Sep-18 15:51 38.871124 -122.614293 195 28218ft 372kts
21-Sep-18 15:52 38.773234 -122.645401 195 26236ft 362kts
21-Sep-18 15:53 38.678197 -122.676440 195 24584ft 346kts
21-Sep-18 15:54 38.586218 -122.706212 194 22762ft 337kts
21-Sep-18 15:55 38.496530 -122.735040 194 20993ft 329kts
21-Sep-18 15:56 38.409681 -122.762936 194 19482ft 315kts
21-Sep-18 15:57 38.325724 -122.789805 193 17823ft 309kts
21-Sep-18 15:58 38.243345 -122.815958 193 16222ft 303kts
21-Sep-18 15:59 38.162470 -122.841747 193 14659ft 297kts
21-Sep-18 16:00 38.083269 -122.866668 186 13132ft 292kts
21-Sep-18 16:01 38.019618 -122.813038 133 11614ft 287kts
21-Sep-18 16:02 37.963250 -122.743716 137 10976ft 284kts
21-Sep-18 16:03 37.902385 -122.675701 139 10981ft 298kts
21-Sep-18 16:04 37.839996 -122.608552 139 11003ft 290kts
21-Sep-18 16:05 37.779448 -122.543843 140 10276ft 286kts
21-Sep-18 16:06 37.719557 -122.480170 140 8797ft 281kts
21-Sep-18 16:07 37.660867 -122.418020 141 8024ft 270kts
21-Sep-18 16:08 37.599533 -122.362980 162 8040ft 274kts
21-Sep-18 16:09 37.529706 -122.328023 137 6716ft 277kts
21-Sep-18 16:10 37.478443 -122.257024 134 5296ft 275kts
21-Sep-18 16:11 37.446780 -122.173511 93 4023ft 270kts
21-Sep-18 16:12 37.475306 -122.112274 349 3532ft 216kts
21-Sep-18 16:13 37.522695 -122.148978 319 2975ft 187kts
21-Sep-18 16:14 37.548254 -122.205314 293 2357ft 188kts
21-Sep-18 16:15 37.571444 -122.262973 297 1624ft 171kts
21-Sep-18 16:16 37.592234 -122.311317 298 917ft 148kts
21-Sep-18 16:17 37.608053 -122.349506 298 161ft 115kts
21-Sep-18 16:18 37.618956 -122.376901 274 13ft 31kts
21-Sep-18 16:19 37.618917 -122.379822 275 15ft 15kts
21-Sep-18 16:20 37.620806 -122.384766 298 13ft 15kts
21-Sep-18 16:21 37.620976 -122.387637 178 13ft 5kts
21-Sep-18 16:22 37.620689 -122.387775 200 13ft 0kts

Navigation Log

Ident Type
Flight plan parsing failed, navigation log unavailable